Time;durP1;ratioP1;P1;durP2;ratioP2;P2;SDS_P1;SDS_P2;PMS_P1;PMS_P2;Temp;Humidity;BMP_temperature;BMP_pressure;BME280_temperature;BME280_humidity;BME280_pressure;Samples;Min_cycle;Max_cycle;Signal;HPM_P1;HPM_P2
2021/03/04 00:00:41;;;;;;;30.20;16.90;;;9.20;92.30;;;;;;6213693;23;20054;-74
2021/03/04 00:03:08;;;;;;;27.83;15.45;;;9.20;92.50;;;;;;6214221;23;20040;-75
2021/03/04 00:05:35;;;;;;;29.63;16.17;;;9.30;92.10;;;;;;6214259;23;20020;-74
2021/03/04 00:08:01;;;;;;;26.98;15.25;;;9.30;92.20;;;;;;6213209;23;20036;-74
2021/03/04 00:10:28;;;;;;;28.65;16.33;;;9.30;92.30;;;;;;6213392;23;20027;-75
2021/03/04 00:12:55;;;;;;;27.15;15.18;;;9.20;92.30;;;;;;6214302;23;20000;-74
2021/03/04 00:15:24;;;;;;;28.63;16.45;;;9.20;92.40;;;;;;6213412;23;20331;-74
2021/03/04 00:17:51;;;;;;;30.08;14.95;;;9.20;92.80;;;;;;6213291;23;20338;-74
2021/03/04 00:20:29;;;;;;;29.60;16.08;;;9.20;92.70;;;;;;6212778;23;19996;-74
2021/03/04 00:22:55;;;;;;;27.27;15.82;;;9.10;92.80;;;;;;6213957;23;20426;-74
2021/03/04 00:25:25;;;;;;;28.35;16.58;;;9.10;92.90;;;;;;6214069;23;20004;-74
2021/03/04 00:27:51;;;;;;;27.88;16.63;;;9.20;93.00;;;;;;6213800;23;20069;-74
2021/03/04 00:30:18;;;;;;;29.88;16.65;;;9.20;93.00;;;;;;6214003;23;19997;-74
2021/03/04 00:32:44;;;;;;;29.98;15.98;;;9.30;92.90;;;;;;6215367;23;20075;-74
2021/03/04 00:35:10;;;;;;;24.58;15.25;;;9.20;92.40;;;;;;6214366;23;20031;-73
2021/03/04 00:37:36;;;;;;;26.83;15.77;;;9.20;92.10;;;;;;6213785;23;20007;-73
2021/03/04 00:40:18;;;;;;;27.92;14.63;;;9.10;92.30;;;;;;6216095;23;20001;-73
2021/03/04 00:42:43;;;;;;;24.97;14.47;;;9.10;92.30;;;;;;6215426;23;20492;-74
2021/03/04 00:45:17;;;;;;;26.63;14.48;;;9.10;92.10;;;;;;6215311;23;20100;-74
2021/03/04 00:47:44;;;;;;;27.63;13.60;;;9.10;91.30;;;;;;6216341;23;20027;-74
2021/03/04 00:50:11;;;;;;;27.77;14.90;;;9.00;91.10;;;;;;6216065;23;20075;-74
2021/03/04 00:52:37;;;;;;;22.98;13.38;;;8.90;91.20;;;;;;6215113;23;20005;-74
2021/03/04 00:55:04;;;;;;;21.60;13.38;;;8.90;91.50;;;;;;6215579;23;20028;-74
2021/03/04 00:57:29;;;;;;;24.50;13.63;;;8.80;91.30;;;;;;6215612;23;20072;-74
2021/03/04 00:59:55;;;;;;;26.58;13.95;;;8.70;91.70;;;;;;6215729;23;20501;-74
2021/03/04 01:02:21;;;;;;;21.05;13.45;;;8.60;92.10;;;;;;6215504;23;20068;-74
2021/03/04 01:04:46;;;;;;;25.50;13.80;;;8.50;92.20;;;;;;6213281;23;20001;-74
2021/03/04 01:07:12;;;;;;;25.55;13.77;;;8.50;92.40;;;;;;6215461;23;20417;-73
2021/03/04 01:09:38;;;;;;;29.38;14.50;;;8.50;92.60;;;;;;6214996;23;20011;-74
2021/03/04 01:12:04;;;;;;;25.08;14.05;;;8.50;92.50;;;;;;6214746;23;20001;-73
2021/03/04 01:14:30;;;;;;;23.02;13.20;;;8.50;92.50;;;;;;6188795;23;20055;-74
2021/03/04 01:16:57;;;;;;;24.58;14.35;;;8.50;92.60;;;;;;6213834;23;20426;-74
2021/03/04 01:19:23;;;;;;;31.67;14.68;;;8.50;92.60;;;;;;6214600;23;20009;-74
2021/03/04 01:21:49;;;;;;;25.75;13.90;;;8.60;92.60;;;;;;6188022;23;20334;-74
2021/03/04 01:24:14;;;;;;;21.70;12.90;;;8.50;92.60;;;;;;6215347;23;20008;-74
2021/03/04 01:26:40;;;;;;;31.45;14.05;;;8.50;92.50;;;;;;6215703;23;20055;-72
2021/03/04 01:29:06;;;;;;;25.55;14.75;;;8.50;92.80;;;;;;6214184;23;20088;-73
2021/03/04 01:31:31;;;;;;;23.10;13.70;;;8.50;93.00;;;;;;6214571;23;19997;-73
2021/03/04 01:33:57;;;;;;;26.25;14.20;;;8.50;92.90;;;;;;6214804;23;20036;-72
2021/03/04 01:36:23;;;;;;;32.08;17.40;;;8.50;93.20;;;;;;6214497;23;19997;-73
2021/03/04 01:38:48;;;;;;;36.30;18.65;;;8.50;93.70;;;;;;6187938;23;20091;-73
2021/03/04 01:41:14;;;;;;;29.77;17.38;;;8.50;94.30;;;;;;6215294;23;20000;-73
2021/03/04 01:43:40;;;;;;;28.30;16.23;;;8.60;94.20;;;;;;6214853;23;20013;-72
2021/03/04 01:46:05;;;;;;;37.92;17.50;;;8.50;93.70;;;;;;6215205;23;20004;-73
2021/03/04 01:48:31;;;;;;;29.85;17.58;;;8.50;93.80;;;;;;6215117;23;20596;-73
2021/03/04 01:50:57;;;;;;;26.58;16.58;;;8.50;93.80;;;;;;6214934;23;20000;-72
2021/03/04 01:53:23;;;;;;;27.20;15.48;;;8.50;93.70;;;;;;6215037;23;20050;-73
2021/03/04 01:55:50;;;;;;;27.15;15.38;;;8.50;93.80;;;;;;6215508;23;20004;-73
2021/03/04 01:58:16;;;;;;;25.08;15.32;;;8.50;93.30;;;;;;6215208;23;20084;-73
2021/03/04 02:04:05;;;;;;;27.15;15.00;;;8.40;93.20;;;;;;6215067;23;20338;-73
2021/03/04 02:06:48;;;;;;;31.60;15.98;;;8.40;93.10;;;;;;6215484;23;20024;-73
2021/03/04 02:09:18;;;;;;;34.55;15.98;;;8.40;93.10;;;;;;6213960;23;20066;-72
2021/03/04 02:12:07;;;;;;;29.33;15.98;;;8.40;93.10;;;;;;6188001;23;20007;-73
2021/03/04 02:15:03;;;;;;;26.83;16.15;;;8.40;93.30;;;;;;6215363;23;20011;-73
2021/03/04 02:17:32;;;;;;;26.05;14.48;;;8.40;93.00;;;;;;6183224;23;19997;-74
2021/03/04 02:20:00;;;;;;;29.45;15.77;;;8.40;93.10;;;;;;6214732;23;20054;-73
2021/03/04 02:22:35;;;;;;;24.10;14.57;;;8.40;93.00;;;;;;6214446;23;20001;-73
2021/03/04 02:25:14;;;;;;;23.60;13.25;;;8.30;92.80;;;;;;6214772;23;20011;-73
2021/03/04 02:27:41;;;;;;;25.42;14.43;;;8.20;92.80;;;;;;6214310;23;20154;-73
2021/03/04 02:30:13;;;;;;;33.33;14.65;;;8.20;93.00;;;;;;6215265;23;20004;-72
2021/03/04 02:32:45;;;;;;;26.25;14.40;;;8.20;93.30;;;;;;6214562;23;20470;-73
2021/03/04 02:35:11;;;;;;;;;;;8.20;93.20;;;;;;6215573;23;20004;-73
2021/03/04 02:37:41;;;;;;;25.50;14.35;;;8.20;93.00;;;;;;6214384;23;20273;-73
2021/03/04 02:40:13;;;;;;;27.67;16.23;;;8.20;93.00;;;;;;6214264;23;19997;-74
2021/03/04 02:42:39;;;;;;;;;;;8.10;93.20;;;;;;6209929;23;20442;-73
2021/03/04 02:45:07;;;;;;;24.42;12.95;;;8.00;93.20;;;;;;6187988;23;19916;-73
2021/03/04 02:47:34;;;;;;;25.45;14.20;;;8.00;93.30;;;;;;6213853;23;20009;-73
2021/03/04 02:50:01;;;;;;;27.85;14.95;;;8.00;93.40;;;;;;6213839;23;20430;-73
2021/03/04 02:52:27;;;;;;;28.77;14.65;;;8.00;93.50;;;;;;6214095;23;20055;-73
2021/03/04 02:54:53;;;;;;;28.92;15.73;;;8.00;93.60;;;;;;6213123;23;20012;-72
2021/03/04 02:57:21;;;;;;;25.27;15.80;;;8.10;93.60;;;;;;6214486;23;20000;-72
2021/03/04 02:59:48;;;;;;;26.48;15.88;;;8.10;93.90;;;;;;6214862;23;19996;-72
2021/03/04 03:02:15;;;;;;;27.73;16.38;;;8.20;94.00;;;;;;6187529;23;20004;-74
2021/03/04 03:04:43;;;;;;;26.55;15.82;;;8.20;94.00;;;;;;6214216;23;20000;-73
2021/03/04 03:07:10;;;;;;;26.58;15.27;;;8.20;93.80;;;;;;6187873;23;20066;-72
2021/03/04 03:09:42;;;;;;;29.17;14.82;;;8.10;93.90;;;;;;6214230;23;20012;-73
2021/03/04 03:12:10;;;;;;;22.88;13.85;;;8.00;94.10;;;;;;6214904;23;20055;-73
2021/03/04 03:14:36;;;;;;;25.13;13.52;;;7.80;94.00;;;;;;6213430;23;20012;-73
2021/03/04 03:17:03;;;;;;;19.13;11.88;;;7.80;93.40;;;;;;6214458;23;20001;-72
2021/03/04 03:19:30;;;;;;;22.52;12.07;;;7.60;93.60;;;;;;6214421;23;20079;-73
2021/03/04 03:21:56;;;;;;;19.80;12.30;;;7.50;93.40;;;;;;6215373;23;20003;-73
2021/03/04 03:24:22;;;;;;;21.45;12.18;;;7.30;93.60;;;;;;6214688;23;20083;-73
2021/03/04 03:26:48;;;;;;;24.33;13.55;;;7.20;93.70;;;;;;6214369;23;20031;-73
2021/03/04 03:29:14;;;;;;;27.17;13.77;;;7.30;93.70;;;;;;6214971;23;20346;-72
2021/03/04 03:31:41;;;;;;;23.63;13.52;;;7.20;93.80;;;;;;6216455;23;20005;-73
2021/03/04 03:34:09;;;;;;;27.10;14.18;;;7.10;93.90;;;;;;6216338;23;20008;-73
2021/03/04 03:36:36;;;;;;;30.65;14.85;;;7.10;94.00;;;;;;6215929;23;20008;-72
2021/03/04 03:39:07;;;;;;;26.65;14.18;;;7.10;94.10;;;;;;6215583;23;20140;-73
2021/03/04 03:41:39;;;;;;;26.42;14.13;;;7.20;94.30;;;;;;6216551;23;20000;-72
2021/03/04 03:44:08;;;;;;;27.83;15.35;;;7.20;94.40;;;;;;6216263;23;20019;-73
2021/03/04 03:46:36;;;;;;;32.72;16.23;;;7.30;94.40;;;;;;6216418;23;20005;-72
2021/03/04 03:49:06;;;;;;;28.00;15.63;;;7.30;94.50;;;;;;6216470;23;20446;-73
2021/03/04 03:51:35;;;;;;;28.08;15.43;;;7.50;94.60;;;;;;6216439;23;19996;-73
2021/03/04 03:54:04;;;;;;;31.52;16.08;;;7.40;94.40;;;;;;6216429;23;20005;-72
2021/03/04 03:56:30;;;;;;;32.50;16.02;;;7.40;94.50;;;;;;6217780;23;20084;-73
2021/03/04 03:58:58;;;;;;;33.75;16.73;;;7.30;94.80;;;;;;6190707;23;20054;-74
2021/03/04 04:01:28;;;;;;;29.30;16.02;;;7.20;94.80;;;;;;6223022;23;20009;-73
2021/03/04 04:03:59;;;;;;;29.35;16.33;;;7.20;94.90;;;;;;6231954;23;20063;-73
2021/03/04 04:06:26;;;;;;;30.08;15.10;;;7.20;94.80;;;;;;6233123;23;19997;-75
2021/03/04 04:08:56;;;;;;;32.08;16.83;;;7.10;94.80;;;;;;6232607;23;20001;-73
2021/03/04 04:11:27;;;;;;;33.60;17.65;;;7.10;94.90;;;;;;6232123;23;20000;-74
2021/03/04 04:13:54;;;;;;;30.40;16.80;;;7.10;95.00;;;;;;6232984;23;20043;-73
2021/03/04 04:16:21;;;;;;;33.92;17.40;;;7.00;94.90;;;;;;6235014;22;20005;-72
2021/03/04 04:18:47;;;;;;;33.72;16.83;;;7.00;95.00;;;;;;6233904;23;20011;-72
2021/03/04 04:21:14;;;;;;;26.77;15.73;;;7.00;95.00;;;;;;6234979;23;20011;-73
2021/03/04 04:23:41;;;;;;;30.75;16.38;;;7.00;95.10;;;;;;6235330;23;20013;-75
2021/03/04 04:26:07;;;;;;;27.23;15.00;;;7.00;95.10;;;;;;6235380;23;20014;-73
2021/03/04 04:28:33;;;;;;;28.70;15.52;;;7.00;95.10;;;;;;6234268;23;20096;-73
2021/03/04 04:30:59;;;;;;;31.60;15.63;;;7.00;94.80;;;;;;6227750;23;20024;-73
2021/03/04 04:33:25;;;;;;;31.13;14.95;;;7.00;94.80;;;;;;6217344;23;20422;-73
2021/03/04 04:35:51;;;;;;;27.50;15.70;;;6.90;94.60;;;;;;6191165;23;20028;-73
2021/03/04 04:38:17;;;;;;;28.90;15.95;;;6.90;94.80;;;;;;6191053;23;20381;-73
2021/03/04 04:40:43;;;;;;;24.65;14.60;;;6.80;94.90;;;;;;6217526;23;20001;-73
2021/03/04 04:43:09;;;;;;;29.95;14.43;;;6.80;94.90;;;;;;6215498;23;20055;-73
2021/03/04 04:45:35;;;;;;;30.23;15.60;;;6.90;95.00;;;;;;6216840;23;20001;-73
2021/03/04 04:48:01;;;;;;;28.95;14.60;;;6.90;95.10;;;;;;6215891;23;20004;-73
2021/03/04 04:50:26;;;;;;;27.65;15.40;;;6.90;95.10;;;;;;6216434;23;20011;-72
2021/03/04 04:52:52;;;;;;;30.63;13.23;;;7.00;94.90;;;;;;6215929;23;19997;-73
2021/03/04 04:55:18;;;;;;;26.42;15.15;;;7.00;94.90;;;;;;6215897;23;20006;-73
2021/03/04 04:57:43;;;;;;;33.25;14.15;;;7.10;94.80;;;;;;6215476;23;20001;-73
2021/03/04 05:00:11;;;;;;;26.95;14.57;;;7.20;94.70;;;;;;6215361;23;20004;-73
2021/03/04 05:02:38;;;;;;;31.38;14.88;;;7.20;94.70;;;;;;6215819;23;20009;-73
2021/03/04 05:05:08;;;;;;;25.40;14.57;;;7.20;94.70;;;;;;6215035;23;20012;-72
2021/03/04 05:07:34;;;;;;;38.33;16.00;;;7.20;94.50;;;;;;6214295;23;20015;-73
2021/03/04 05:10:00;;;;;;;35.85;14.57;;;7.30;94.40;;;;;;6216022;23;20042;-73
2021/03/04 05:12:26;;;;;;;32.13;15.80;;;7.20;94.30;;;;;;6215515;23;20005;-73
2021/03/04 05:14:52;;;;;;;27.70;15.43;;;7.20;94.50;;;;;;6215377;23;20000;-73
2021/03/04 05:17:19;;;;;;;32.05;15.95;;;7.20;94.70;;;;;;6215217;23;20032;-73
2021/03/04 05:19:45;;;;;;;27.98;16.17;;;7.20;94.70;;;;;;6215940;23;20330;-73
2021/03/04 05:22:10;;;;;;;35.05;16.38;;;7.10;94.90;;;;;;6215508;23;20000;-73
2021/03/04 05:24:36;;;;;;;34.22;17.05;;;7.10;95.00;;;;;;6215312;23;20530;-73
2021/03/04 05:27:02;;;;;;;33.22;16.85;;;6.90;95.60;;;;;;6215425;23;20005;-73
2021/03/04 05:29:28;;;;;;;38.97;16.75;;;6.80;95.80;;;;;;6215035;23;20438;-74
2021/03/04 05:31:53;;;;;;;32.58;17.20;;;6.80;95.90;;;;;;6216014;23;20004;-73
2021/03/04 05:34:19;;;;;;;30.30;15.63;;;6.90;96.00;;;;;;6214207;23;20071;-73
2021/03/04 05:36:45;;;;;;;37.05;17.17;;;6.80;95.70;;;;;;6215552;23;20087;-76
2021/03/04 05:39:10;;;;;;;34.97;17.02;;;6.80;95.50;;;;;;6215266;23;20046;-73
2021/03/04 05:41:36;;;;;;;34.35;17.27;;;6.80;95.60;;;;;;6215163;23;20009;-73
2021/03/04 05:44:04;;;;;;;36.13;18.58;;;6.80;95.60;;;;;;6187720;23;20041;-73
2021/03/04 05:46:34;;;;;;;36.63;16.42;;;6.90;95.70;;;;;;6214203;23;20020;-73
2021/03/04 05:49:00;;;;;;;35.42;17.10;;;6.90;95.70;;;;;;6215037;23;20008;-72
2021/03/04 05:51:27;;;;;;;38.20;18.15;;;6.90;95.70;;;;;;6215448;23;20054;-73
2021/03/04 05:53:57;;;;;;;28.08;16.90;;;7.00;95.50;;;;;;6215746;23;20007;-73
2021/03/04 05:56:24;;;;;;;42.83;18.30;;;7.00;95.40;;;;;;6214912;23;19997;-73
2021/03/04 05:58:52;;;;;;;44.30;18.58;;;7.10;95.50;;;;;;6214360;23;20047;-73
2021/03/04 06:01:18;;;;;;;29.60;16.10;;;7.10;95.50;;;;;;6214433;23;20082;-73
2021/03/04 06:03:45;;;;;;;43.83;18.40;;;7.10;95.60;;;;;;6215035;23;19997;-73
2021/03/04 06:06:11;;;;;;;34.05;18.50;;;7.10;95.50;;;;;;6215150;23;20004;-73
2021/03/04 06:08:37;;;;;;;33.78;18.88;;;7.20;95.60;;;;;;6214999;23;20080;-73
2021/03/04 06:11:04;;;;;;;33.17;18.98;;;7.10;95.50;;;;;;6188060;23;20024;-73
2021/03/04 06:13:31;;;;;;;39.95;19.90;;;7.10;95.50;;;;;;6214346;23;20365;-73
2021/03/04 06:15:57;;;;;;;36.83;19.38;;;7.10;95.90;;;;;;6214676;23;20023;-74
2021/03/04 06:18:23;;;;;;;44.78;19.90;;;7.10;96.00;;;;;;6214255;23;20080;-74
2021/03/04 06:20:49;;;;;;;40.97;20.13;;;7.10;95.90;;;;;;6214427;23;20371;-73
2021/03/04 06:23:14;;;;;;;53.08;20.10;;;7.20;96.00;;;;;;6214276;23;20086;-73
2021/03/04 06:25:43;;;;;;;34.08;18.67;;;7.20;96.00;;;;;;6214423;23;20001;-73
2021/03/04 06:28:09;;;;;;;42.25;18.52;;;7.30;95.90;;;;;;6215098;23;20012;-73
2021/03/04 06:30:42;;;;;;;40.80;19.15;;;7.40;95.70;;;;;;6214641;23;20486;-73
2021/03/04 06:33:13;;;;;;;38.85;19.33;;;7.50;95.60;;;;;;6214363;23;20430;-74
2021/03/04 06:35:44;;;;;;;36.20;20.90;;;7.70;95.40;;;;;;6188088;23;20008;-74
2021/03/04 06:38:14;;;;;;;50.35;22.95;;;7.80;95.40;;;;;;6214823;23;20001;-73
2021/03/04 06:40:40;;;;;;;224.73;125.47;;;8.00;95.00;;;;;;6214804;23;20004;-73
2021/03/04 06:43:06;;;;;;;82.40;47.97;;;8.20;94.90;;;;;;6213119;23;20051;-74
2021/03/04 06:45:37;;;;;;;59.83;35.85;;;8.40;94.70;;;;;;6213214;23;20568;-74
2021/03/04 06:48:15;;;;;;;46.33;23.08;;;8.60;94.50;;;;;;6211193;23;20017;-74
2021/03/04 06:50:49;;;;;;;43.42;21.55;;;8.80;94.20;;;;;;6213915;23;19996;-74
2021/03/04 06:53:20;;;;;;;44.90;20.70;;;8.90;94.10;;;;;;6215013;23;20311;-73
2021/03/04 06:56:06;;;;;;;44.23;20.67;;;9.00;93.60;;;;;;6214219;23;20011;-74
2021/03/04 06:58:36;;;;;;;48.00;18.85;;;9.20;93.30;;;;;;6214301;23;20051;-74
2021/03/04 07:01:03;;;;;;;65.35;35.47;;;9.40;92.90;;;;;;6214157;23;20530;-73
2021/03/04 07:03:44;;;;;;;58.70;31.33;;;9.50;92.90;;;;;;6213933;23;20059;-74
2021/03/04 07:06:16;;;;;;;44.70;26.80;;;9.60;92.70;;;;;;6214357;23;20075;-73
2021/03/04 07:08:43;;;;;;;43.55;20.67;;;9.80;92.50;;;;;;6214719;23;20346;-74
2021/03/04 07:11:11;;;;;;;39.47;20.67;;;10.00;92.20;;;;;;6214787;23;20054;-74
2021/03/04 07:13:39;;;;;;;41.47;21.20;;;10.10;92.00;;;;;;6210330;23;20005;-74
2021/03/04 07:16:09;;;;;;;43.38;22.60;;;10.20;91.90;;;;;;6182177;23;20070;-73
2021/03/04 07:18:45;;;;;;;53.08;21.65;;;10.20;91.90;;;;;;6212526;23;20000;-74
2021/03/04 07:21:12;;;;;;;53.67;23.67;;;10.10;91.90;;;;;;6213074;23;20032;-74
2021/03/04 07:23:42;;;;;;;43.40;21.85;;;10.20;92.10;;;;;;6212556;23;20585;-74
2021/03/04 07:26:09;;;;;;;49.85;23.25;;;10.30;92.00;;;;;;6211593;23;20007;-73
2021/03/04 07:28:40;;;;;;;66.38;34.05;;;10.50;92.00;;;;;;6212247;23;20346;-73
2021/03/04 07:31:08;;;;;;;50.30;24.27;;;10.60;92.10;;;;;;6213787;23;20068;-73
2021/03/04 07:33:36;;;;;;;48.33;23.80;;;10.80;91.90;;;;;;6213517;23;20434;-74
2021/03/04 07:36:09;;;;;;;42.90;21.70;;;11.00;91.70;;;;;;6214047;23;20430;-73
2021/03/04 07:38:36;;;;;;;41.08;23.83;;;11.20;91.50;;;;;;6213054;23;20008;-74
2021/03/04 07:41:05;;;;;;;53.63;26.65;;;11.40;91.20;;;;;;6213695;23;19996;-73
2021/03/04 07:43:51;;;;;;;40.92;22.10;;;11.50;91.40;;;;;;6213776;23;20008;-74
2021/03/04 07:46:28;;;;;;;40.88;21.40;;;11.60;91.10;;;;;;6212394;23;20005;-73
2021/03/04 07:48:53;;;;;;;39.58;21.50;;;11.80;90.80;;;;;;6213287;23;20350;-73
2021/03/04 07:51:20;;;;;;;153.77;95.85;;;11.80;90.90;;;;;;6212687;23;20000;-73
2021/03/04 07:53:47;;;;;;;83.22;52.17;;;11.90;91.00;;;;;;6186904;23;20008;-74
2021/03/04 07:56:28;;;;;;;56.85;33.72;;;12.10;90.80;;;;;;6213764;23;20021;-74
2021/03/04 07:59:15;;;;;;;43.58;21.58;;;12.30;90.40;;;;;;6213141;23;20035;-74
2021/03/04 08:01:56;;;;;;;46.13;20.02;;;12.40;90.20;;;;;;6213631;23;20001;-73
2021/03/04 08:04:23;;;;;;;47.15;22.55;;;12.50;89.50;;;;;;6213605;23;20032;-73
2021/03/04 08:06:53;;;;;;;40.72;20.30;;;12.60;89.10;;;;;;6214243;23;20005;-73
2021/03/04 08:09:29;;;;;;;60.92;31.17;;;12.70;89.60;;;;;;6213275;23;20388;-73
2021/03/04 08:12:04;;;;;;;51.38;28.60;;;12.90;89.20;;;;;;6213337;23;19997;-74
2021/03/04 08:14:30;;;;;;;37.45;20.45;;;13.10;88.10;;;;;;6213385;23;20013;-73
2021/03/04 08:16:56;;;;;;;63.53;25.33;;;13.30;87.10;;;;;;6214080;23;20066;-74
2021/03/04 08:19:31;;;;;;;54.47;23.05;;;13.50;86.40;;;;;;6213718;23;20138;-74
2021/03/04 08:22:04;;;;;;;58.33;21.35;;;13.60;86.20;;;;;;6214326;23;20449;-74
2021/03/04 08:24:32;;;;;;;48.17;22.38;;;13.70;85.50;;;;;;6213842;23;20005;-74
2021/03/04 08:26:58;;;;;;;51.15;22.15;;;13.70;85.80;;;;;;6213970;23;20035;-74
2021/03/04 08:29:25;;;;;;;50.55;28.48;;;13.80;84.70;;;;;;6213638;23;20100;-74
2021/03/04 08:31:54;;;;;;;51.28;24.48;;;14.00;83.60;;;;;;6213575;23;20001;-75
2021/03/04 08:34:20;;;;;;;50.92;23.00;;;14.20;83.30;;;;;;6213974;23;20011;-75
2021/03/04 08:36:48;;;;;;;62.40;23.10;;;14.60;82.00;;;;;;6213616;23;19997;-74
2021/03/04 08:39:17;;;;;;;56.60;23.20;;;14.90;81.30;;;;;;6187153;23;20074;-74
2021/03/04 08:41:43;;;;;;;67.82;23.73;;;15.10;81.10;;;;;;6214032;23;20171;-74
2021/03/04 08:44:13;;;;;;;41.60;24.48;;;15.40;80.30;;;;;;6212882;23;20462;-74
2021/03/04 08:46:47;;;;;;;49.72;25.02;;;15.80;79.40;;;;;;6212056;23;20517;-74
2021/03/04 08:49:22;;;;;;;46.22;24.30;;;16.10;78.20;;;;;;6213364;23;20096;-74
2021/03/04 08:51:49;;;;;;;40.75;22.27;;;16.30;76.60;;;;;;6214079;23;20392;-74
2021/03/04 08:54:27;;;;;;;42.20;22.17;;;16.50;77.20;;;;;;6213290;23;20005;-74
2021/03/04 08:57:05;;;;;;;47.63;24.55;;;17.20;75.20;;;;;;6213645;23;20001;-74
2021/03/04 08:59:31;;;;;;;46.40;23.25;;;18.00;72.20;;;;;;6187225;23;20330;-75
2021/03/04 09:01:58;;;;;;;40.85;24.20;;;18.60;71.20;;;;;;6188229;23;20004;-75
2021/03/04 09:04:27;;;;;;;42.60;26.35;;;19.10;70.90;;;;;;6215277;23;20484;-75
2021/03/04 09:06:53;;;;;;;40.78;24.55;;;19.60;68.90;;;;;;6215891;23;20000;-75
2021/03/04 09:09:26;;;;;;;45.05;24.70;;;20.10;68.40;;;;;;6215468;23;20426;-75
2021/03/04 09:11:53;;;;;;;53.50;26.20;;;20.90;67.00;;;;;;6215629;23;21161;-75
2021/03/04 09:14:27;;;;;;;37.92;23.50;;;21.70;65.60;;;;;;6214544;23;20000;-75
2021/03/04 09:16:53;;;;;;;47.78;25.25;;;22.30;64.40;;;;;;6215088;23;19997;-75
2021/03/04 09:19:39;;;;;;;39.10;23.95;;;22.60;62.90;;;;;;6188526;23;20005;-75
2021/03/04 09:22:13;;;;;;;50.80;26.08;;;23.00;62.70;;;;;;6213464;23;20027;-76
2021/03/04 09:24:39;;;;;;;36.08;22.25;;;23.40;61.40;;;;;;6213963;23;20021;-75
2021/03/04 09:27:07;;;;;;;38.55;23.88;;;23.70;61.20;;;;;;6213611;23;20195;-76
2021/03/04 09:29:38;;;;;;;48.00;24.20;;;24.30;59.90;;;;;;6213739;23;20019;-75
2021/03/04 09:32:04;;;;;;;49.17;23.40;;;24.50;58.80;;;;;;6213706;23;20399;-75
2021/03/04 09:34:40;;;;;;;43.65;24.08;;;24.60;58.40;;;;;;6213811;23;20417;-75
2021/03/04 09:37:14;;;;;;;40.78;24.23;;;24.70;58.00;;;;;;6214648;23;20020;-76
2021/03/04 09:39:41;;;;;;;40.88;26.25;;;24.70;58.00;;;;;;6214500;23;20008;-76
2021/03/04 09:42:09;;;;;;;48.03;24.13;;;24.90;57.60;;;;;;6214617;23;20004;-76
2021/03/04 09:44:51;;;;;;;46.90;26.67;;;24.90;58.30;;;;;;6213400;23;20036;-75
2021/03/04 09:47:36;;;;;;;53.55;26.95;;;25.50;56.90;;;;;;6215011;23;20075;-76
2021/03/04 09:50:15;;;;;;;45.97;25.33;;;25.20;57.50;;;;;;6214993;23;20415;-76
2021/03/04 09:52:41;;;;;;;38.95;22.55;;;25.20;56.70;;;;;;6214106;23;20418;-76
2021/03/04 09:55:15;;;;;;;36.72;23.08;;;25.30;57.60;;;;;;6187434;23;20011;-75
2021/03/04 09:57:45;;;;;;;48.90;24.45;;;25.30;56.60;;;;;;6214333;23;20007;-76
2021/03/04 10:00:20;;;;;;;40.05;24.80;;;25.10;57.00;;;;;;6214392;23;20000;-76
2021/03/04 10:02:51;;;;;;;46.03;23.55;;;25.20;57.10;;;;;;6215396;23;20000;-76
2021/03/04 10:05:19;;;;;;;39.65;23.45;;;25.10;56.80;;;;;;6215088;23;20005;-76
2021/03/04 10:07:47;;;;;;;35.45;23.42;;;24.90;57.10;;;;;;6214694;23;20106;-75
2021/03/04 10:10:15;;;;;;;43.75;24.90;;;24.70;57.00;;;;;;6214782;23;20003;-76
2021/03/04 10:12:56;;;;;;;39.78;25.33;;;24.40;57.50;;;;;;6214588;23;20008;-76
2021/03/04 10:15:24;;;;;;;47.83;25.87;;;24.30;58.00;;;;;;6215015;23;20020;-75
2021/03/04 10:17:50;;;;;;;47.97;25.63;;;24.20;58.10;;;;;;6214987;23;20228;-76
2021/03/04 10:20:16;;;;;;;44.67;26.38;;;23.90;58.50;;;;;;6214523;23;20050;-76
2021/03/04 10:22:42;;;;;;;47.83;25.88;;;23.50;58.70;;;;;;6214734;23;20076;-76
2021/03/04 10:25:08;;;;;;;45.60;25.50;;;23.10;59.50;;;;;;6214353;23;20024;-75
2021/03/04 10:27:36;;;;;;;47.20;26.50;;;23.10;59.30;;;;;;6214712;23;20044;-75
2021/03/04 10:30:03;;;;;;;39.72;25.42;;;23.00;59.10;;;;;;6214954;23;20000;-76
2021/03/04 10:32:29;;;;;;;51.55;26.25;;;22.90;59.40;;;;;;6215125;23;20001;-76
2021/03/04 10:34:54;;;;;;;42.15;26.88;;;22.70;59.50;;;;;;6214760;23;20330;-76
2021/03/04 10:37:20;;;;;;;49.67;27.10;;;22.30;59.90;;;;;;6214679;23;20008;-76
2021/03/04 10:39:45;;;;;;;41.95;26.90;;;22.00;60.80;;;;;;6214933;23;20055;-76
2021/03/04 10:42:11;;;;;;;45.17;27.15;;;21.60;61.20;;;;;;6214199;23;20039;-76
2021/03/04 10:44:38;;;;;;;52.83;26.17;;;21.50;61.60;;;;;;6214025;23;20433;-76
2021/03/04 10:47:04;;;;;;;42.10;27.00;;;21.30;61.90;;;;;;6214943;23;20039;-75
2021/03/04 10:49:29;;;;;;;47.72;27.08;;;21.30;61.80;;;;;;6214978;23;20009;-76
2021/03/04 10:51:55;;;;;;;42.50;26.45;;;21.50;61.20;;;;;;6214401;23;19997;-76
2021/03/04 10:54:21;;;;;;;46.20;25.83;;;21.30;61.20;;;;;;6214380;23;19997;-76
2021/03/04 10:56:47;;;;;;;50.20;25.73;;;;;;;;;;6214411;23;20028;-75
2021/03/04 10:59:12;;;;;;;48.47;28.40;;;20.90;60.50;;;;;;6214349;23;19996;-75
2021/03/04 11:01:38;;;;;;;44.45;26.05;;;20.90;61.80;;;;;;6215164;23;20039;-76
2021/03/04 11:04:04;;;;;;;41.17;25.33;;;20.70;61.80;;;;;;6214427;23;20076;-76
2021/03/04 11:06:30;;;;;;;43.80;25.63;;;20.40;61.80;;;;;;6214135;23;20422;-76
2021/03/04 11:08:55;;;;;;;44.97;24.55;;;20.30;62.40;;;;;;6213833;23;20087;-75
2021/03/04 11:11:21;;;;;;;51.28;24.40;;;20.10;62.70;;;;;;6214382;23;20411;-75
2021/03/04 11:13:47;;;;;;;55.25;25.75;;;20.10;63.00;;;;;;6213864;23;20001;-76
2021/03/04 11:16:12;;;;;;;51.38;24.50;;;19.90;62.80;;;;;;6214236;23;20000;-76
2021/03/04 11:18:38;;;;;;;52.58;24.20;;;19.80;63.70;;;;;;6213147;23;20012;-76
2021/03/04 11:21:04;;;;;;;47.13;25.50;;;19.90;63.80;;;;;;6213038;23;19996;-76
2021/03/04 11:23:30;;;;;;;57.30;27.15;;;19.90;64.20;;;;;;6214077;23;20009;-76
2021/03/04 11:25:55;;;;;;;42.63;24.58;;;19.90;63.80;;;;;;6214521;23;20001;-76
2021/03/04 11:28:21;;;;;;;44.65;23.67;;;19.70;64.40;;;;;;6214465;23;20013;-76
2021/03/04 11:30:46;;;;;;;47.80;25.05;;;19.40;64.50;;;;;;6214498;23;20004;-76
2021/03/04 11:33:12;;;;;;;48.40;23.42;;;19.20;65.00;;;;;;6214213;23;20043;-76
2021/03/04 11:35:38;;;;;;;39.65;22.70;;;19.20;65.20;;;;;;6214406;23;20381;-76
2021/03/04 11:38:03;;;;;;;44.88;20.35;;;19.10;65.10;;;;;;6214262;23;20072;-76
2021/03/04 11:40:29;;;;;;;39.42;21.55;;;19.20;65.40;;;;;;6214617;23;20009;-76
2021/03/04 11:42:55;;;;;;;39.75;20.98;;;18.80;66.90;;;;;;6214268;23;20076;-75
2021/03/04 11:45:21;;;;;;;39.97;21.73;;;18.60;67.60;;;;;;6210139;23;20042;-75
2021/03/04 11:47:46;;;;;;;38.90;21.98;;;18.60;68.80;;;;;;6211409;23;20009;-75
2021/03/04 11:50:12;;;;;;;38.10;21.25;;;18.50;68.80;;;;;;6211817;23;20024;-75
2021/03/04 11:52:38;;;;;;;52.13;21.67;;;18.40;68.20;;;;;;6210463;23;20080;-76
2021/03/04 11:55:05;;;;;;;36.60;19.98;;;18.00;68.60;;;;;;6211747;23;20126;-75
2021/03/04 11:57:31;;;;;;;44.25;22.88;;;17.90;68.80;;;;;;6212766;23;20012;-75
2021/03/04 11:59:57;;;;;;;38.55;21.13;;;17.70;68.40;;;;;;6186570;23;19997;-75
2021/03/04 12:02:24;;;;;;;42.35;21.02;;;17.70;69.20;;;;;;6212514;23;20054;-75
2021/03/04 12:04:52;;;;;;;41.03;20.88;;;17.70;69.10;;;;;;6213922;23;20001;-75
2021/03/04 12:07:18;;;;;;;44.53;20.35;;;17.80;68.40;;;;;;6186075;23;20326;-75
2021/03/04 12:09:44;;;;;;;45.35;21.92;;;17.80;68.60;;;;;;6211650;23;20004;-76
2021/03/04 12:12:10;;;;;;;42.58;22.48;;;17.80;68.70;;;;;;6213688;23;20024;-75
2021/03/04 12:14:36;;;;;;;43.30;21.60;;;17.80;68.60;;;;;;6187156;23;20334;-75
2021/03/04 12:17:01;;;;;;;47.58;23.55;;;17.80;68.40;;;;;;6213673;23;20009;-75
2021/03/04 12:19:27;;;;;;;47.55;21.88;;;17.70;69.30;;;;;;6214072;23;20003;-75
2021/03/04 12:21:53;;;;;;;48.15;23.83;;;17.60;69.80;;;;;;6214030;23;20651;-75
2021/03/04 12:24:18;;;;;;;44.38;23.20;;;17.40;70.40;;;;;;6214370;23;20098;-75
2021/03/04 12:26:46;;;;;;;55.63;25.00;;;17.30;70.90;;;;;;6214328;23;20008;-75
2021/03/04 12:29:12;;;;;;;52.40;26.98;;;17.30;71.70;;;;;;6214147;23;20109;-76
2021/03/04 12:31:39;;;;;;;49.17;25.23;;;17.00;73.20;;;;;;6214145;23;20454;-75
2021/03/04 12:34:05;;;;;;;55.05;27.98;;;16.90;74.20;;;;;;6213949;23;20001;-75
2021/03/04 12:36:32;;;;;;;60.47;27.60;;;16.90;75.40;;;;;;6214965;23;20051;-75
2021/03/04 12:38:57;;;;;;;58.17;29.17;;;16.90;76.20;;;;;;6215926;23;20024;-75
2021/03/04 12:41:23;;;;;;;57.75;29.42;;;16.90;77.10;;;;;;6216103;23;20094;-76